sensor_id;sensor_type;location;lat;lon;timestamp;temperature;humidity
67141;DHT22;54058;52.010;5.546;2022-08-19T00:01:23;19.70;75.90
67141;DHT22;54058;52.010;5.546;2022-08-19T00:03:50;19.70;75.90
67141;DHT22;54058;52.010;5.546;2022-08-19T00:06:16;19.70;76.00
67141;DHT22;54058;52.010;5.546;2022-08-19T00:08:42;19.70;76.00
67141;DHT22;54058;52.010;5.546;2022-08-19T00:11:08;19.70;76.00
67141;DHT22;54058;52.010;5.546;2022-08-19T00:13:34;19.70;76.00
67141;DHT22;54058;52.010;5.546;2022-08-19T00:16:00;19.60;76.00
67141;DHT22;54058;52.010;5.546;2022-08-19T00:18:27;19.60;76.00
67141;DHT22;54058;52.010;5.546;2022-08-19T00:20:53;19.60;76.00
67141;DHT22;54058;52.010;5.546;2022-08-19T00:23:18;19.60;76.10
67141;DHT22;54058;52.010;5.546;2022-08-19T00:25:44;19.60;76.10
67141;DHT22;54058;52.010;5.546;2022-08-19T00:28:11;19.60;76.10
67141;DHT22;54058;52.010;5.546;2022-08-19T00:30:36;19.50;76.20
67141;DHT22;54058;52.010;5.546;2022-08-19T00:33:02;19.50;76.40
67141;DHT22;54058;52.010;5.546;2022-08-19T00:35:28;19.40;76.30
67141;DHT22;54058;52.010;5.546;2022-08-19T00:37:54;19.40;76.40
67141;DHT22;54058;52.010;5.546;2022-08-19T00:40:21;19.40;76.40
67141;DHT22;54058;52.010;5.546;2022-08-19T00:42:47;19.40;76.60
67141;DHT22;54058;52.010;5.546;2022-08-19T00:45:17;19.40;76.60
67141;DHT22;54058;52.010;5.546;2022-08-19T00:47:45;19.40;76.70
67141;DHT22;54058;52.010;5.546;2022-08-19T00:50:14;19.40;76.50
67141;DHT22;54058;52.010;5.546;2022-08-19T00:52:46;19.40;76.60
67141;DHT22;54058;52.010;5.546;2022-08-19T00:55:24;19.40;76.60
67141;DHT22;54058;52.010;5.546;2022-08-19T00:57:56;19.30;76.70
67141;DHT22;54058;52.010;5.546;2022-08-19T01:00:26;19.30;76.60
67141;DHT22;54058;52.010;5.546;2022-08-19T01:02:52;19.20;76.60
67141;DHT22;54058;52.010;5.546;2022-08-19T01:05:22;19.20;76.70
67141;DHT22;54058;52.010;5.546;2022-08-19T01:07:49;19.20;76.70
67141;DHT22;54058;52.010;5.546;2022-08-19T01:10:20;19.20;76.90
67141;DHT22;54058;52.010;5.546;2022-08-19T01:12:47;19.20;77.10
67141;DHT22;54058;52.010;5.546;2022-08-19T01:15:16;19.20;77.10
67141;DHT22;54058;52.010;5.546;2022-08-19T01:17:43;19.10;77.10
67141;DHT22;54058;52.010;5.546;2022-08-19T01:20:15;19.10;77.10
67141;DHT22;54058;52.010;5.546;2022-08-19T01:22:49;19.10;77.20
67141;DHT22;54058;52.010;5.546;2022-08-19T01:25:18;19.10;77.30
67141;DHT22;54058;52.010;5.546;2022-08-19T01:27:48;19.10;77.10
67141;DHT22;54058;52.010;5.546;2022-08-19T01:30:22;19.10;77.10
67141;DHT22;54058;52.010;5.546;2022-08-19T01:32:49;19.10;77.20
67141;DHT22;54058;52.010;5.546;2022-08-19T01:35:16;19.10;77.20
67141;DHT22;54058;52.010;5.546;2022-08-19T01:37:46;19.00;77.10
67141;DHT22;54058;52.010;5.546;2022-08-19T01:40:13;19.10;77.20
67141;DHT22;54058;52.010;5.546;2022-08-19T01:42:39;19.00;77.10
67141;DHT22;54058;52.010;5.546;2022-08-19T01:45:05;19.00;77.10
67141;DHT22;54058;52.010;5.546;2022-08-19T01:47:36;19.00;77.20
67141;DHT22;54058;52.010;5.546;2022-08-19T01:50:04;19.00;77.30
67141;DHT22;54058;52.010;5.546;2022-08-19T01:52:29;19.00;77.40
67141;DHT22;54058;52.010;5.546;2022-08-19T01:54:55;19.00;77.30
67141;DHT22;54058;52.010;5.546;2022-08-19T01:57:21;19.00;77.20
67141;DHT22;54058;52.010;5.546;2022-08-19T01:59:46;19.00;77.30
67141;DHT22;54058;52.010;5.546;2022-08-19T02:02:12;19.00;77.20
67141;DHT22;54058;52.010;5.546;2022-08-19T02:04:38;18.90;77.20
67141;DHT22;54058;52.010;5.546;2022-08-19T02:07:05;18.90;77.20
67141;DHT22;54058;52.010;5.546;2022-08-19T02:09:31;18.90;77.40
67141;DHT22;54058;52.010;5.546;2022-08-19T02:11:57;18.80;78.20
67141;DHT22;54058;52.010;5.546;2022-08-19T02:14:23;18.80;77.10
67141;DHT22;54058;52.010;5.546;2022-08-19T02:16:49;18.80;77.30
67141;DHT22;54058;52.010;5.546;2022-08-19T02:19:15;18.70;77.40
67141;DHT22;54058;52.010;5.546;2022-08-19T02:21:40;18.80;77.50
67141;DHT22;54058;52.010;5.546;2022-08-19T02:24:06;18.70;77.40
67141;DHT22;54058;52.010;5.546;2022-08-19T02:26:32;18.70;77.30
67141;DHT22;54058;52.010;5.546;2022-08-19T02:28:58;18.80;77.40
67141;DHT22;54058;52.010;5.546;2022-08-19T02:31:25;18.70;77.30
67141;DHT22;54058;52.010;5.546;2022-08-19T02:33:53;18.70;77.40
67141;DHT22;54058;52.010;5.546;2022-08-19T02:36:20;18.70;77.50
67141;DHT22;54058;52.010;5.546;2022-08-19T02:38:46;18.70;77.50
67141;DHT22;54058;52.010;5.546;2022-08-19T02:41:21;18.70;77.60
67141;DHT22;54058;52.010;5.546;2022-08-19T02:43:47;18.70;77.70
67141;DHT22;54058;52.010;5.546;2022-08-19T02:46:19;18.70;77.60
67141;DHT22;54058;52.010;5.546;2022-08-19T02:48:51;18.70;77.60
67141;DHT22;54058;52.010;5.546;2022-08-19T02:51:19;18.60;77.70
67141;DHT22;54058;52.010;5.546;2022-08-19T02:53:45;18.70;77.80
67141;DHT22;54058;52.010;5.546;2022-08-19T02:56:11;18.70;77.80
67141;DHT22;54058;52.010;5.546;2022-08-19T02:58:37;18.70;77.70
67141;DHT22;54058;52.010;5.546;2022-08-19T03:01:02;18.60;77.50
67141;DHT22;54058;52.010;5.546;2022-08-19T03:03:28;18.60;77.50
67141;DHT22;54058;52.010;5.546;2022-08-19T03:06:14;18.70;77.50
67141;DHT22;54058;52.010;5.546;2022-08-19T03:08:43;18.70;77.80
67141;DHT22;54058;52.010;5.546;2022-08-19T03:11:18;18.70;77.50
67141;DHT22;54058;52.010;5.546;2022-08-19T03:13:45;18.60;77.60
67141;DHT22;54058;52.010;5.546;2022-08-19T03:16:12;18.60;77.50
67141;DHT22;54058;52.010;5.546;2022-08-19T03:18:38;18.60;77.50
67141;DHT22;54058;52.010;5.546;2022-08-19T03:21:06;18.60;78.50
67141;DHT22;54058;52.010;5.546;2022-08-19T03:23:32;18.60;77.20
67141;DHT22;54058;52.010;5.546;2022-08-19T03:25:58;18.60;77.50
67141;DHT22;54058;52.010;5.546;2022-08-19T03:28:24;18.60;77.60
67141;DHT22;54058;52.010;5.546;2022-08-19T03:31:10;18.60;77.70
67141;DHT22;54058;52.010;5.546;2022-08-19T03:33:37;18.50;78.00
67141;DHT22;54058;52.010;5.546;2022-08-19T03:36:10;18.40;77.80
67141;DHT22;54058;52.010;5.546;2022-08-19T03:38:40;18.40;78.10
67141;DHT22;54058;52.010;5.546;2022-08-19T03:41:14;18.30;78.30
67141;DHT22;54058;52.010;5.546;2022-08-19T03:43:41;18.30;78.40
67141;DHT22;54058;52.010;5.546;2022-08-19T03:46:10;18.30;78.40
67141;DHT22;54058;52.010;5.546;2022-08-19T03:48:37;18.40;78.30
67141;DHT22;54058;52.010;5.546;2022-08-19T03:51:05;18.40;78.20
67141;DHT22;54058;52.010;5.546;2022-08-19T03:53:32;18.40;78.20
67141;DHT22;54058;52.010;5.546;2022-08-19T03:55:58;18.40;78.30
67141;DHT22;54058;52.010;5.546;2022-08-19T03:58:29;18.40;78.40
67141;DHT22;54058;52.010;5.546;2022-08-19T04:00:58;18.30;78.40
67141;DHT22;54058;52.010;5.546;2022-08-19T04:03:25;18.40;78.40
67141;DHT22;54058;52.010;5.546;2022-08-19T04:05:52;18.40;78.30
67141;DHT22;54058;52.010;5.546;2022-08-19T04:08:19;18.40;78.30
67141;DHT22;54058;52.010;5.546;2022-08-19T04:10:49;18.40;78.20
67141;DHT22;54058;52.010;5.546;2022-08-19T04:13:16;18.40;78.20
67141;DHT22;54058;52.010;5.546;2022-08-19T04:15:43;18.40;78.20
67141;DHT22;54058;52.010;5.546;2022-08-19T04:18:10;18.30;78.30
67141;DHT22;54058;52.010;5.546;2022-08-19T04:20:47;18.30;78.40
67141;DHT22;54058;52.010;5.546;2022-08-19T04:23:14;18.40;78.50
67141;DHT22;54058;52.010;5.546;2022-08-19T04:25:42;18.40;78.10
67141;DHT22;54058;52.010;5.546;2022-08-19T04:28:09;18.40;78.20
67141;DHT22;54058;52.010;5.546;2022-08-19T04:30:40;18.50;78.10
67141;DHT22;54058;52.010;5.546;2022-08-19T04:33:06;18.40;78.30
67141;DHT22;54058;52.010;5.546;2022-08-19T04:35:39;18.40;78.10
67141;DHT22;54058;52.010;5.546;2022-08-19T04:38:05;18.40;78.20
67141;DHT22;54058;52.010;5.546;2022-08-19T04:40:31;18.40;78.20
67141;DHT22;54058;52.010;5.546;2022-08-19T04:43:15;18.40;78.10
67141;DHT22;54058;52.010;5.546;2022-08-19T04:45:43;18.40;78.20
67141;DHT22;54058;52.010;5.546;2022-08-19T04:48:09;18.30;78.30
67141;DHT22;54058;52.010;5.546;2022-08-19T04:50:35;18.40;78.40
67141;DHT22;54058;52.010;5.546;2022-08-19T04:53:01;18.30;78.30
67141;DHT22;54058;52.010;5.546;2022-08-19T04:55:26;18.30;78.30
67141;DHT22;54058;52.010;5.546;2022-08-19T04:57:52;18.30;78.50
67141;DHT22;54058;52.010;5.546;2022-08-19T05:00:18;18.30;78.50
67141;DHT22;54058;52.010;5.546;2022-08-19T05:02:44;18.20;78.60
67141;DHT22;54058;52.010;5.546;2022-08-19T05:05:09;18.20;78.70
67141;DHT22;54058;52.010;5.546;2022-08-19T05:07:36;18.20;78.80
67141;DHT22;54058;52.010;5.546;2022-08-19T05:10:04;18.20;78.80
67141;DHT22;54058;52.010;5.546;2022-08-19T05:12:30;18.30;78.90
67141;DHT22;54058;52.010;5.546;2022-08-19T05:14:57;18.30;79.00
67141;DHT22;54058;52.010;5.546;2022-08-19T05:17:23;18.40;78.90
67141;DHT22;54058;52.010;5.546;2022-08-19T05:19:48;18.40;78.90
67141;DHT22;54058;52.010;5.546;2022-08-19T05:22:33;18.40;78.90
67141;DHT22;54058;52.010;5.546;2022-08-19T05:25:10;18.50;78.90
67141;DHT22;54058;52.010;5.546;2022-08-19T05:27:37;18.50;79.00
67141;DHT22;54058;52.010;5.546;2022-08-19T05:30:04;18.60;78.90
67141;DHT22;54058;52.010;5.546;2022-08-19T05:32:30;18.70;78.90
67141;DHT22;54058;52.010;5.546;2022-08-19T05:34:56;18.70;78.80
67141;DHT22;54058;52.010;5.546;2022-08-19T05:37:22;18.80;78.90
67141;DHT22;54058;52.010;5.546;2022-08-19T05:39:47;18.70;78.90
67141;DHT22;54058;52.010;5.546;2022-08-19T05:42:14;18.80;79.10
67141;DHT22;54058;52.010;5.546;2022-08-19T05:44:43;18.90;79.20
67141;DHT22;54058;52.010;5.546;2022-08-19T05:47:10;18.90;79.20
67141;DHT22;54058;52.010;5.546;2022-08-19T05:49:37;19.00;79.20
67141;DHT22;54058;52.010;5.546;2022-08-19T05:52:05;19.10;79.20
67141;DHT22;54058;52.010;5.546;2022-08-19T05:54:31;19.20;79.30
67141;DHT22;54058;52.010;5.546;2022-08-19T05:56:57;19.30;79.30
67141;DHT22;54058;52.010;5.546;2022-08-19T05:59:23;19.40;79.20
67141;DHT22;54058;52.010;5.546;2022-08-19T06:01:52;19.50;79.40
67141;DHT22;54058;52.010;5.546;2022-08-19T06:04:20;19.70;79.10
67141;DHT22;54058;52.010;5.546;2022-08-19T06:06:47;19.80;79.10
67141;DHT22;54058;52.010;5.546;2022-08-19T06:09:13;19.90;79.20
67141;DHT22;54058;52.010;5.546;2022-08-19T06:11:42;19.90;79.20
67141;DHT22;54058;52.010;5.546;2022-08-19T06:14:16;20.00;79.10
67141;DHT22;54058;52.010;5.546;2022-08-19T06:16:43;20.10;79.20
67141;DHT22;54058;52.010;5.546;2022-08-19T06:19:16;20.20;79.10
67141;DHT22;54058;52.010;5.546;2022-08-19T06:21:44;20.20;79.70
67141;DHT22;54058;52.010;5.546;2022-08-19T06:24:12;20.30;79.30
67141;DHT22;54058;52.010;5.546;2022-08-19T06:26:40;20.40;79.30
67141;DHT22;54058;52.010;5.546;2022-08-19T06:29:07;20.40;79.50
67141;DHT22;54058;52.010;5.546;2022-08-19T06:31:34;20.50;80.20
67141;DHT22;54058;52.010;5.546;2022-08-19T06:34:04;20.50;79.60
67141;DHT22;54058;52.010;5.546;2022-08-19T06:36:36;20.60;79.60
67141;DHT22;54058;52.010;5.546;2022-08-19T06:39:12;20.60;79.70
67141;DHT22;54058;52.010;5.546;2022-08-19T06:41:40;20.60;79.50
67141;DHT22;54058;52.010;5.546;2022-08-19T06:44:07;20.70;79.40
67141;DHT22;54058;52.010;5.546;2022-08-19T06:46:32;20.80;79.30
67141;DHT22;54058;52.010;5.546;2022-08-19T06:48:58;20.80;79.20
67141;DHT22;54058;52.010;5.546;2022-08-19T06:51:25;20.90;79.30
67141;DHT22;54058;52.010;5.546;2022-08-19T06:53:53;20.90;79.20
67141;DHT22;54058;52.010;5.546;2022-08-19T06:56:23;21.00;79.20
67141;DHT22;54058;52.010;5.546;2022-08-19T06:58:50;21.10;79.30
67141;DHT22;54058;52.010;5.546;2022-08-19T07:01:19;21.10;79.20
67141;DHT22;54058;52.010;5.546;2022-08-19T07:03:45;21.20;79.20
67141;DHT22;54058;52.010;5.546;2022-08-19T07:06:14;21.20;79.10
67141;DHT22;54058;52.010;5.546;2022-08-19T07:08:43;21.30;79.00
67141;DHT22;54058;52.010;5.546;2022-08-19T07:11:11;21.30;79.60
67141;DHT22;54058;52.010;5.546;2022-08-19T07:13:39;21.30;79.20
67141;DHT22;54058;52.010;5.546;2022-08-19T07:16:10;21.20;79.30
67141;DHT22;54058;52.010;5.546;2022-08-19T07:18:37;21.30;79.30
67141;DHT22;54058;52.010;5.546;2022-08-19T07:21:09;21.30;79.20
67141;DHT22;54058;52.010;5.546;2022-08-19T07:23:35;21.50;78.80
67141;DHT22;54058;52.010;5.546;2022-08-19T07:26:17;21.60;78.70
67141;DHT22;54058;52.010;5.546;2022-08-19T07:28:45;21.60;78.60
67141;DHT22;54058;52.010;5.546;2022-08-19T07:31:14;21.50;78.80
67141;DHT22;54058;52.010;5.546;2022-08-19T07:33:40;21.50;78.90
67141;DHT22;54058;52.010;5.546;2022-08-19T07:36:09;21.60;78.90
67141;DHT22;54058;52.010;5.546;2022-08-19T07:38:37;21.60;79.00
67141;DHT22;54058;52.010;5.546;2022-08-19T07:41:04;21.60;79.30
67141;DHT22;54058;52.010;5.546;2022-08-19T07:43:30;21.60;79.40
67141;DHT22;54058;52.010;5.546;2022-08-19T07:45:55;21.80;79.40
67141;DHT22;54058;52.010;5.546;2022-08-19T07:48:28;21.80;79.10
67141;DHT22;54058;52.010;5.546;2022-08-19T07:50:59;21.90;79.00
67141;DHT22;54058;52.010;5.546;2022-08-19T07:53:28;22.00;79.00
67141;DHT22;54058;52.010;5.546;2022-08-19T07:55:55;22.00;79.20
67141;DHT22;54058;52.010;5.546;2022-08-19T07:58:21;21.90;79.20
67141;DHT22;54058;52.010;5.546;2022-08-19T08:00:49;21.80;79.50
67141;DHT22;54058;52.010;5.546;2022-08-19T08:03:18;21.80;79.60
67141;DHT22;54058;52.010;5.546;2022-08-19T08:05:45;22.00;79.50
67141;DHT22;54058;52.010;5.546;2022-08-19T08:08:31;22.20;79.30
67141;DHT22;54058;52.010;5.546;2022-08-19T08:10:57;22.50;78.70
67141;DHT22;54058;52.010;5.546;2022-08-19T08:13:23;22.70;78.20
67141;DHT22;54058;52.010;5.546;2022-08-19T08:15:48;22.80;78.20
67141;DHT22;54058;52.010;5.546;2022-08-19T08:18:15;22.80;78.00
67141;DHT22;54058;52.010;5.546;2022-08-19T08:20:41;22.90;77.90
67141;DHT22;54058;52.010;5.546;2022-08-19T08:23:06;22.90;77.60
67141;DHT22;54058;52.010;5.546;2022-08-19T08:25:52;23.10;77.60
67141;DHT22;54058;52.010;5.546;2022-08-19T08:28:18;23.30;77.10
67141;DHT22;54058;52.010;5.546;2022-08-19T08:30:45;23.40;76.90
67141;DHT22;54058;52.010;5.546;2022-08-19T08:33:13;23.50;76.70
67141;DHT22;54058;52.010;5.546;2022-08-19T08:35:40;23.60;76.30
67141;DHT22;54058;52.010;5.546;2022-08-19T08:38:07;23.70;76.00
67141;DHT22;54058;52.010;5.546;2022-08-19T08:40:46;23.80;76.00
67141;DHT22;54058;52.010;5.546;2022-08-19T08:43:27;24.00;75.80
67141;DHT22;54058;52.010;5.546;2022-08-19T08:46:08;24.10;75.70
67141;DHT22;54058;52.010;5.546;2022-08-19T08:51:24;24.40;74.90
67141;DHT22;54058;52.010;5.546;2022-08-19T08:53:52;24.50;75.00
67141;DHT22;54058;52.010;5.546;2022-08-19T08:56:19;24.50;75.10
67141;DHT22;54058;52.010;5.546;2022-08-19T08:59:07;24.50;75.20
67141;DHT22;54058;52.010;5.546;2022-08-19T09:01:35;24.40;74.60
67141;DHT22;54058;52.010;5.546;2022-08-19T09:04:05;24.40;75.00
67141;DHT22;54058;52.010;5.546;2022-08-19T09:06:42;24.20;72.10
67141;DHT22;54058;52.010;5.546;2022-08-19T09:09:17;24.20;75.30
67141;DHT22;54058;52.010;5.546;2022-08-19T09:12:30;23.90;75.50
67141;DHT22;54058;52.010;5.546;2022-08-19T09:15:06;23.90;73.70
67141;DHT22;54058;52.010;5.546;2022-08-19T09:17:33;24.20;75.30
67141;DHT22;54058;52.010;5.546;2022-08-19T09:20:05;24.40;74.90
67141;DHT22;54058;52.010;5.546;2022-08-19T09:22:35;24.60;74.10
67141;DHT22;54058;52.010;5.546;2022-08-19T09:25:01;24.60;73.70
67141;DHT22;54058;52.010;5.546;2022-08-19T09:27:28;24.60;73.60
67141;DHT22;54058;52.010;5.546;2022-08-19T09:29:54;24.40;73.80
67141;DHT22;54058;52.010;5.546;2022-08-19T09:32:20;24.50;73.90
67141;DHT22;54058;52.010;5.546;2022-08-19T09:34:46;24.70;71.60
67141;DHT22;54058;52.010;5.546;2022-08-19T09:37:12;24.90;73.50
67141;DHT22;54058;52.010;5.546;2022-08-19T09:39:39;25.00;72.70
67141;DHT22;54058;52.010;5.546;2022-08-19T09:42:09;25.20;72.40
67141;DHT22;54058;52.010;5.546;2022-08-19T09:44:40;25.40;71.80
67141;DHT22;54058;52.010;5.546;2022-08-19T09:47:06;25.60;71.60
67141;DHT22;54058;52.010;5.546;2022-08-19T09:49:32;25.70;71.20
67141;DHT22;54058;52.010;5.546;2022-08-19T09:51:59;25.70;70.80
67141;DHT22;54058;52.010;5.546;2022-08-19T09:54:25;25.80;70.60
67141;DHT22;54058;52.010;5.546;2022-08-19T09:56:52;25.90;70.30
67141;DHT22;54058;52.010;5.546;2022-08-19T09:59:17;25.90;70.30
67141;DHT22;54058;52.010;5.546;2022-08-19T10:01:43;26.00;70.20
67141;DHT22;54058;52.010;5.546;2022-08-19T10:04:09;25.70;70.00
67141;DHT22;54058;52.010;5.546;2022-08-19T10:06:37;25.70;70.30
67141;DHT22;54058;52.010;5.546;2022-08-19T10:09:05;25.70;70.00
67141;DHT22;54058;52.010;5.546;2022-08-19T10:11:32;25.60;69.90
67141;DHT22;54058;52.010;5.546;2022-08-19T10:13:58;25.80;69.80
67141;DHT22;54058;52.010;5.546;2022-08-19T10:16:24;25.80;69.20
67141;DHT22;54058;52.010;5.546;2022-08-19T10:18:50;25.80;67.00
67141;DHT22;54058;52.010;5.546;2022-08-19T10:21:24;25.90;66.20
67141;DHT22;54058;52.010;5.546;2022-08-19T10:23:52;26.00;69.20
67141;DHT22;54058;52.010;5.546;2022-08-19T10:26:24;26.00;69.10
67141;DHT22;54058;52.010;5.546;2022-08-19T10:28:50;26.10;68.30
67141;DHT22;54058;52.010;5.546;2022-08-19T10:31:27;26.10;68.90
67141;DHT22;54058;52.010;5.546;2022-08-19T10:33:54;26.00;68.40
67141;DHT22;54058;52.010;5.546;2022-08-19T10:36:28;25.90;69.20
67141;DHT22;54058;52.010;5.546;2022-08-19T10:38:56;26.00;69.00
67141;DHT22;54058;52.010;5.546;2022-08-19T10:41:26;26.00;68.60
67141;DHT22;54058;52.010;5.546;2022-08-19T10:43:54;26.00;68.80
67141;DHT22;54058;52.010;5.546;2022-08-19T10:46:21;26.30;68.50
67141;DHT22;54058;52.010;5.546;2022-08-19T10:48:48;26.50;68.10
67141;DHT22;54058;52.010;5.546;2022-08-19T10:51:14;26.60;67.60
67141;DHT22;54058;52.010;5.546;2022-08-19T10:53:59;26.70;67.50
67141;DHT22;54058;52.010;5.546;2022-08-19T10:56:26;26.90;67.10
67141;DHT22;54058;52.010;5.546;2022-08-19T10:59:10;27.10;66.20
67141;DHT22;54058;52.010;5.546;2022-08-19T11:01:41;27.20;65.70
67141;DHT22;54058;52.010;5.546;2022-08-19T11:04:07;27.20;65.30
67141;DHT22;54058;52.010;5.546;2022-08-19T11:06:37;26.90;65.50
67141;DHT22;54058;52.010;5.546;2022-08-19T11:09:04;27.00;65.50
67141;DHT22;54058;52.010;5.546;2022-08-19T11:11:31;26.70;65.50
67141;DHT22;54058;52.010;5.546;2022-08-19T11:13:58;26.90;65.70
67141;DHT22;54058;52.010;5.546;2022-08-19T11:16:25;27.10;65.10
67141;DHT22;54058;52.010;5.546;2022-08-19T11:18:57;27.10;65.30
67141;DHT22;54058;52.010;5.546;2022-08-19T11:21:32;27.10;65.00
67141;DHT22;54058;52.010;5.546;2022-08-19T11:24:04;27.10;65.30
67141;DHT22;54058;52.010;5.546;2022-08-19T11:26:32;27.40;65.10
67141;DHT22;54058;52.010;5.546;2022-08-19T11:28:59;27.40;65.00
67141;DHT22;54058;52.010;5.546;2022-08-19T11:31:28;27.40;64.80
67141;DHT22;54058;52.010;5.546;2022-08-19T11:33:57;27.40;64.50
67141;DHT22;54058;52.010;5.546;2022-08-19T11:36:22;27.20;64.80
67141;DHT22;54058;52.010;5.546;2022-08-19T11:38:49;27.20;64.90
67141;DHT22;54058;52.010;5.546;2022-08-19T11:41:16;27.30;65.10
67141;DHT22;54058;52.010;5.546;2022-08-19T11:43:41;27.40;62.60
67141;DHT22;54058;52.010;5.546;2022-08-19T11:46:10;27.60;64.80
67141;DHT22;54058;52.010;5.546;2022-08-19T11:48:37;27.70;64.40
67141;DHT22;54058;52.010;5.546;2022-08-19T11:51:07;27.80;63.90
67141;DHT22;54058;52.010;5.546;2022-08-19T11:53:34;27.90;63.80
67141;DHT22;54058;52.010;5.546;2022-08-19T11:56:00;27.60;63.50
67141;DHT22;54058;52.010;5.546;2022-08-19T11:58:26;27.50;63.50
67141;DHT22;54058;52.010;5.546;2022-08-19T12:00:52;27.50;63.80
67141;DHT22;54058;52.010;5.546;2022-08-19T12:03:18;27.60;63.90
67141;DHT22;54058;52.010;5.546;2022-08-19T12:05:45;27.80;63.60
67141;DHT22;54058;52.010;5.546;2022-08-19T12:08:11;27.90;63.20
67141;DHT22;54058;52.010;5.546;2022-08-19T12:10:39;28.00;63.20
67141;DHT22;54058;52.010;5.546;2022-08-19T12:13:05;28.10;62.90
67141;DHT22;54058;52.010;5.546;2022-08-19T12:15:36;28.10;62.70
67141;DHT22;54058;52.010;5.546;2022-08-19T12:18:03;28.10;62.40
67141;DHT22;54058;52.010;5.546;2022-08-19T12:20:29;28.00;62.50
67141;DHT22;54058;52.010;5.546;2022-08-19T12:22:55;28.00;63.00
67141;DHT22;54058;52.010;5.546;2022-08-19T12:25:20;28.10;62.90
67141;DHT22;54058;52.010;5.546;2022-08-19T12:27:46;28.10;62.90
67141;DHT22;54058;52.010;5.546;2022-08-19T12:30:13;28.10;63.00
67141;DHT22;54058;52.010;5.546;2022-08-19T12:32:38;28.00;62.50
67141;DHT22;54058;52.010;5.546;2022-08-19T12:35:05;27.80;61.20
67141;DHT22;54058;52.010;5.546;2022-08-19T12:37:31;27.90;63.40
67141;DHT22;54058;52.010;5.546;2022-08-19T12:39:57;28.00;62.90
67141;DHT22;54058;52.010;5.546;2022-08-19T12:42:23;27.90;62.30
67141;DHT22;54058;52.010;5.546;2022-08-19T12:44:49;27.80;63.10
67141;DHT22;54058;52.010;5.546;2022-08-19T12:47:17;27.70;62.60
67141;DHT22;54058;52.010;5.546;2022-08-19T12:49:43;27.70;62.70
67141;DHT22;54058;52.010;5.546;2022-08-19T12:52:10;27.60;62.50
67141;DHT22;54058;52.010;5.546;2022-08-19T12:54:36;27.50;62.50
67141;DHT22;54058;52.010;5.546;2022-08-19T12:57:06;27.30;61.10
67141;DHT22;54058;52.010;5.546;2022-08-19T12:59:33;27.30;63.00
67141;DHT22;54058;52.010;5.546;2022-08-19T13:01:59;27.40;63.10
67141;DHT22;54058;52.010;5.546;2022-08-19T13:04:25;27.50;62.80
67141;DHT22;54058;52.010;5.546;2022-08-19T13:06:51;27.60;62.60
67141;DHT22;54058;52.010;5.546;2022-08-19T13:09:17;27.50;62.60
67141;DHT22;54058;52.010;5.546;2022-08-19T13:11:42;27.30;62.70
67141;DHT22;54058;52.010;5.546;2022-08-19T13:14:09;27.20;63.00
67141;DHT22;54058;52.010;5.546;2022-08-19T13:16:36;27.00;63.00
67141;DHT22;54058;52.010;5.546;2022-08-19T13:19:04;26.90;63.30
67141;DHT22;54058;52.010;5.546;2022-08-19T13:21:31;26.70;63.40
67141;DHT22;54058;52.010;5.546;2022-08-19T13:23:57;26.60;63.50
67141;DHT22;54058;52.010;5.546;2022-08-19T13:26:23;26.50;63.60
67141;DHT22;54058;52.010;5.546;2022-08-19T13:28:49;26.40;63.50
67141;DHT22;54058;52.010;5.546;2022-08-19T13:31:35;26.40;63.60
67141;DHT22;54058;52.010;5.546;2022-08-19T13:34:35;26.30;63.60
67141;DHT22;54058;52.010;5.546;2022-08-19T13:37:03;26.10;63.50
67141;DHT22;54058;52.010;5.546;2022-08-19T13:39:33;26.00;64.50
67141;DHT22;54058;52.010;5.546;2022-08-19T13:41:59;26.00;65.00
67141;DHT22;54058;52.010;5.546;2022-08-19T13:44:25;25.80;65.20
67141;DHT22;54058;52.010;5.546;2022-08-19T13:46:51;25.70;65.70
67141;DHT22;54058;52.010;5.546;2022-08-19T13:49:18;25.60;66.70
67141;DHT22;54058;52.010;5.546;2022-08-19T13:51:45;25.50;65.90
67141;DHT22;54058;52.010;5.546;2022-08-19T13:54:12;25.60;65.40
67141;DHT22;54058;52.010;5.546;2022-08-19T13:56:43;25.50;66.20
67141;DHT22;54058;52.010;5.546;2022-08-19T13:59:09;25.50;66.50
67141;DHT22;54058;52.010;5.546;2022-08-19T14:01:35;25.40;66.40
67141;DHT22;54058;52.010;5.546;2022-08-19T14:04:02;25.40;66.40
67141;DHT22;54058;52.010;5.546;2022-08-19T14:06:27;25.30;66.30
67141;DHT22;54058;52.010;5.546;2022-08-19T14:08:53;25.20;66.60
67141;DHT22;54058;52.010;5.546;2022-08-19T14:11:18;25.20;66.90
67141;DHT22;54058;52.010;5.546;2022-08-19T14:13:44;25.10;67.20
67141;DHT22;54058;52.010;5.546;2022-08-19T14:16:12;25.20;67.20
67141;DHT22;54058;52.010;5.546;2022-08-19T14:18:44;25.20;67.00
67141;DHT22;54058;52.010;5.546;2022-08-19T14:21:19;25.00;67.80
67141;DHT22;54058;52.010;5.546;2022-08-19T14:23:45;24.70;68.40
67141;DHT22;54058;52.010;5.546;2022-08-19T14:26:16;24.40;69.50
67141;DHT22;54058;52.010;5.546;2022-08-19T14:28:43;24.10;70.20
67141;DHT22;54058;52.010;5.546;2022-08-19T14:31:13;24.00;70.20
67141;DHT22;54058;52.010;5.546;2022-08-19T14:33:42;23.90;70.70
67141;DHT22;54058;52.010;5.546;2022-08-19T14:36:08;23.80;70.60
67141;DHT22;54058;52.010;5.546;2022-08-19T14:38:33;23.60;70.70
67141;DHT22;54058;52.010;5.546;2022-08-19T14:41:29;23.50;70.80
67141;DHT22;54058;52.010;5.546;2022-08-19T14:43:56;23.30;73.00
67141;DHT22;54058;52.010;5.546;2022-08-19T14:46:25;23.20;71.40
67141;DHT22;54058;52.010;5.546;2022-08-19T14:48:53;23.20;73.90
67141;DHT22;54058;52.010;5.546;2022-08-19T14:51:21;23.10;71.40
67141;DHT22;54058;52.010;5.546;2022-08-19T14:53:47;23.20;71.90
67141;DHT22;54058;52.010;5.546;2022-08-19T14:56:19;23.20;71.90
67141;DHT22;54058;52.010;5.546;2022-08-19T14:58:46;23.20;72.00
67141;DHT22;54058;52.010;5.546;2022-08-19T15:01:12;23.20;71.90
67141;DHT22;54058;52.010;5.546;2022-08-19T15:03:39;23.20;72.20
67141;DHT22;54058;52.010;5.546;2022-08-19T15:06:06;23.20;72.30
67141;DHT22;54058;52.010;5.546;2022-08-19T15:08:33;23.20;72.30
67141;DHT22;54058;52.010;5.546;2022-08-19T15:11:01;23.30;75.50
67141;DHT22;54058;52.010;5.546;2022-08-19T15:13:28;23.30;72.00
67141;DHT22;54058;52.010;5.546;2022-08-19T15:15:56;23.30;72.20
67141;DHT22;54058;52.010;5.546;2022-08-19T15:18:22;23.30;72.50
67141;DHT22;54058;52.010;5.546;2022-08-19T15:20:48;23.30;72.70
67141;DHT22;54058;52.010;5.546;2022-08-19T15:23:15;23.30;72.60
67141;DHT22;54058;52.010;5.546;2022-08-19T15:25:41;23.30;72.60
67141;DHT22;54058;52.010;5.546;2022-08-19T15:28:07;23.40;72.70
67141;DHT22;54058;52.010;5.546;2022-08-19T15:30:36;23.40;72.80
67141;DHT22;54058;52.010;5.546;2022-08-19T15:33:02;23.50;73.10
67141;DHT22;54058;52.010;5.546;2022-08-19T15:35:28;23.50;73.30
67141;DHT22;54058;52.010;5.546;2022-08-19T15:37:55;23.50;73.20
67141;DHT22;54058;52.010;5.546;2022-08-19T15:40:21;23.50;73.20